Time;durP1;ratioP1;P1;durP2;ratioP2;P2;SDS_P1;SDS_P2;PMS_P1;PMS_P2;Temp;Humidity;BMP_temperature;BMP_pressure;BME280_temperature;BME280_humidity;BME280_pressure;Samples;Min_cycle;Max_cycle;Signal;HPM_P1;HPM_P2
2023/05/22 00:03:39;;;;;;;5.20;3.40;;;;;;;12.99;69.35;98956.71;225514;1283;22554;-75
2023/05/22 00:08:50;;;;;;;5.40;3.00;;;;;;;12.98;69.36;98951.93;225459;1283;22559;-74
2023/05/22 00:14:00;;;;;;;6.10;3.20;;;;;;;12.95;69.29;98953.71;225428;1283;22534;-74
2023/05/22 00:19:16;;;;;;;4.90;3.00;;;;;;;12.90;69.38;98946.45;225537;1283;22543;-74
2023/05/22 00:24:23;;;;;;;5.20;3.50;;;;;;;12.84;69.38;98945.40;225360;1283;22543;-74
2023/05/22 00:29:36;;;;;;;4.60;3.40;;;;;;;12.79;69.47;98944.31;225508;1283;22570;-74
2023/05/22 00:34:50;;;;;;;;;;;;;;;12.75;69.59;98939.79;225322;1283;22524;-74
2023/05/22 00:40:06;;;;;;;6.00;3.40;;;;;;;12.69;69.68;98934.81;225381;1283;22592;-75
2023/05/22 00:45:14;;;;;;;4.80;3.90;;;;;;;12.67;69.56;98928.92;225534;1283;22660;-75
2023/05/22 00:50:32;;;;;;;4.50;3.60;;;;;;;12.62;69.62;98925.59;225542;1279;22547;-74
2023/05/22 00:55:44;;;;;;;4.10;3.10;;;;;;;12.59;69.62;98924.45;225532;1283;22568;-73
2023/05/22 01:01:01;;;;;;;9.50;3.70;;;;;;;12.51;69.64;98926.73;225548;1283;22544;-74
2023/05/22 01:06:23;;;;;;;5.50;3.70;;;;;;;12.38;69.82;98921.20;225454;1283;22536;-74
2023/05/22 01:11:54;;;;;;;4.30;3.50;;;;;;;12.23;70.12;98917.58;225563;1283;23391;-74
2023/05/22 01:17:34;;;;;;;4.60;3.50;;;;;;;12.10;70.35;98917.83;225529;1283;23301;-74
2023/05/22 01:23:32;;;;;;;5.80;3.70;;;;;;;11.97;70.50;98909.40;225543;1283;25966;-75
2023/05/22 01:29:11;;;;;;;6.40;3.40;;;;;;;11.83;70.74;98899.56;225519;1282;25989;-74
2023/05/22 01:34:32;;;;;;;4.20;3.80;;;;;;;11.74;71.04;98902.61;225534;1274;22660;-75
2023/05/22 01:39:52;;;;;;;6.20;3.90;;;;;;;11.64;71.19;98904.36;225441;1281;22530;-74
2023/05/22 01:44:58;;;;;;;4.80;3.80;;;;;;;11.56;71.40;98904.45;225531;1280;22530;-74
2023/05/22 01:50:07;;;;;;;5.30;3.50;;;;;;;11.49;71.38;98903.95;225299;1283;22569;-74
2023/05/22 01:55:41;;;;;;;5.70;3.80;;;;;;;11.43;71.63;98904.82;225529;1283;22530;-74
2023/05/22 02:00:54;;;;;;;5.20;3.40;;;;;;;11.36;71.76;98900.77;225540;1279;22543;-75
2023/05/22 02:06:05;;;;;;;5.10;3.20;;;;;;;11.29;71.75;98895.70;225408;1283;24226;-74
2023/05/22 02:11:31;;;;;;;4.60;3.40;;;;;;;11.25;71.84;98896.95;225447;1283;22546;-75
2023/05/22 02:16:46;;;;;;;5.80;3.80;;;;;;;11.21;71.86;98900.76;225529;1281;22547;-75
2023/05/22 02:22:17;;;;;;;4.50;3.40;;;;;;;11.15;72.04;98901.55;225433;1267;22648;-74
2023/05/22 02:27:31;;;;;;;7.00;3.60;;;;;;;11.06;72.04;98899.96;225494;1281;22543;-74
2023/05/22 02:32:42;;;;;;;;;;;;;;;11.00;72.26;98901.80;225559;1281;22535;-74
2023/05/22 02:37:45;;;;;;;5.60;3.60;;;;;;;10.92;72.31;98903.92;225434;1281;22549;-75
2023/05/22 02:42:54;;;;;;;4.70;3.60;;;;;;;10.87;72.25;98900.23;225447;1281;22534;-74
2023/05/22 02:48:19;;;;;;;4.70;3.60;;;;;;;10.81;72.37;98897.09;225346;1283;22596;-74
2023/05/22 02:53:34;;;;;;;6.50;3.90;;;;;;;10.74;72.72;98899.33;225417;1283;22539;-74
2023/05/22 02:58:39;;;;;;;6.10;3.80;;;;;;;10.67;72.75;98898.27;225558;1283;22531;-73
2023/05/22 03:03:47;;;;;;;4.80;3.70;;;;;;;10.62;72.85;98896.59;225463;1281;22542;-73
2023/05/22 03:09:07;;;;;;;8.10;3.50;;;;;;;10.59;72.86;98896.42;225454;1283;22558;-74
2023/05/22 03:14:35;;;;;;;;;;;;;;;;;;;;;
2023/05/22 03:19:44;;;;;;;5.70;3.60;;;;;;;10.64;72.80;98897.42;225509;1279;25936;-73
2023/05/22 03:24:51;;;;;;;7.00;3.90;;;;;;;10.71;72.70;98898.85;225518;1281;22559;-74
2023/05/22 03:30:12;;;;;;;7.50;3.70;;;;;;;10.96;72.72;98899.48;225369;1283;22543;-75
2023/05/22 03:35:24;;;;;;;3.80;3.50;;;;;;;11.28;72.42;98902.61;225486;1283;22551;-74
2023/05/22 03:40:32;;;;;;;4.80;3.10;;;;;;;11.61;72.23;98904.61;225529;1283;24281;-74
2023/05/22 03:46:02;;;;;;;6.80;3.40;;;;;;;11.95;71.98;98905.10;225408;1283;25052;-75
2023/05/22 03:51:45;;;;;;;4.80;3.50;;;;;;;12.28;71.46;98911.16;225587;1283;22547;-74
2023/05/22 03:56:58;;;;;;;4.80;3.60;;;;;;;12.46;71.43;98915.21;225197;1286;22571;-74
2023/05/22 04:02:15;;;;;;;4.50;3.50;;;;;;;12.59;70.91;98909.83;225251;1286;23527;-75
2023/05/22 04:07:26;;;;;;;4.00;3.30;;;;;;;12.64;70.49;98909.13;225169;1284;22550;-73
2023/05/22 04:12:39;;;;;;;5.70;3.40;;;;;;;12.68;70.40;98906.46;225188;1286;22550;-74
2023/05/22 04:17:44;;;;;;;4.40;3.30;;;;;;;12.71;70.24;98907.45;225120;1285;22645;-75
2023/05/22 04:22:58;;;;;;;7.20;3.50;;;;;;;12.79;70.14;98901.60;225046;1286;22540;-74
2023/05/22 04:28:31;;;;;;;4.90;3.80;;;;;;;12.84;70.23;98901.91;225442;1283;22550;-76
2023/05/22 04:33:47;;;;;;;4.60;3.20;;;;;;;12.89;70.45;98895.92;225461;1283;22581;-75
2023/05/22 04:38:55;;;;;;;;;;;;;;;13.00;70.62;98898.77;225515;1281;24317;-75
2023/05/22 04:44:02;;;;;;;4.70;3.40;;;;;;;13.11;70.80;98899.12;225454;1281;22542;-74
2023/05/22 04:49:05;;;;;;;4.10;3.50;;;;;;;13.23;70.78;98899.10;225438;1281;22550;-74
2023/05/22 04:54:08;;;;;;;6.80;3.80;;;;;;;13.36;70.85;98892.04;225452;1279;24417;-74
2023/05/22 04:59:15;;;;;;;4.70;3.10;;;;;;;13.50;70.70;98890.21;225357;1283;22554;-74
2023/05/22 05:04:23;;;;;;;5.10;3.60;;;;;;;13.71;71.03;98888.13;225419;1283;22545;-74
2023/05/22 05:09:33;;;;;;;4.00;3.60;;;;;;;13.89;70.76;98888.11;225383;1283;22646;-75
2023/05/22 05:14:38;;;;;;;4.00;2.90;;;;;;;14.07;70.73;98888.65;225436;1283;24894;-74
2023/05/22 05:19:43;;;;;;;5.50;3.60;;;;;;;14.23;70.47;98891.69;225491;1283;22531;-75
2023/05/22 05:24:49;;;;;;;5.00;3.30;;;;;;;14.37;70.26;98894.77;225403;1283;22568;-74
2023/05/22 05:29:54;;;;;;;4.70;3.50;;;;;;;14.49;69.51;98899.70;225450;1283;22547;-75
2023/05/22 05:35:04;;;;;;;3.90;3.10;;;;;;;14.61;69.32;98898.13;225360;1281;22543;-74
2023/05/22 05:40:46;;;;;;;6.10;3.30;;;;;;;14.75;68.89;98900.23;225467;1278;22550;-75
2023/05/22 05:45:56;;;;;;;6.70;3.60;;;;;;;14.91;68.71;98900.24;225516;1283;22536;-73
2023/05/22 05:51:01;;;;;;;6.50;3.10;;;;;;;15.11;68.49;98897.34;225546;1281;22582;-74
2023/05/22 05:56:11;;;;;;;6.70;3.20;;;;;;;15.37;67.91;98895.21;225339;1282;22543;-74
2023/05/22 06:01:28;;;;;;;6.90;2.90;;;;;;;15.58;66.89;98892.94;225084;1272;22598;-75
2023/05/22 06:06:36;;;;;;;7.50;3.30;;;;;;;15.81;66.59;98885.66;225249;1279;22555;-75
2023/05/22 06:11:39;;;;;;;5.20;3.20;;;;;;;16.08;66.36;98887.86;224743;1261;137612;-75
2023/05/22 06:16:57;;;;;;;4.40;3.10;;;;;;;16.29;65.98;98887.22;224981;1266;137770;-74
2023/05/22 06:22:07;;;;;;;4.50;2.50;;;;;;;16.46;65.65;98892.52;224983;1267;138480;-77
2023/05/22 06:27:15;;;;;;;6.00;2.90;;;;;;;16.62;64.73;98884.55;225054;1263;137760;-77
2023/05/22 06:32:23;;;;;;;6.00;2.70;;;;;;;16.84;64.82;98883.22;225090;1266;23038;-76
2023/05/22 06:37:42;;;;;;;3.20;2.70;;;;;;;17.05;64.39;98881.41;224930;1271;137740;-75
2023/05/22 06:42:46;;;;;;;3.90;2.70;;;;;;;17.22;64.13;98880.63;225042;1280;137708;-74
2023/05/22 06:48:06;;;;;;;3.80;2.60;;;;;;;17.37;63.69;98880.73;225133;1280;137759;-74
2023/05/22 06:53:18;;;;;;;6.80;3.50;;;;;;;17.51;63.91;98881.20;224962;1278;137866;-75
2023/05/22 06:58:26;;;;;;;4.90;3.00;;;;;;;17.56;63.34;98883.30;224887;1260;138013;-75
2023/05/22 07:03:35;;;;;;;6.00;3.20;;;;;;;17.56;62.98;98882.00;225150;1282;138024;-77
2023/05/22 07:09:21;;;;;;;6.50;3.20;;;;;;;17.64;63.03;98882.66;225079;1282;137902;-78
2023/05/22 07:14:29;;;;;;;5.30;3.00;;;;;;;17.83;62.73;98878.95;225292;1272;22550;-77
2023/05/22 07:19:37;;;;;;;8.80;3.50;;;;;;;18.07;62.42;98878.52;225216;1278;138107;-77
2023/05/22 07:25:10;;;;;;;5.30;2.90;;;;;;;18.33;61.64;98877.54;225166;1282;137780;-77
2023/05/22 07:30:23;;;;;;;6.20;2.90;;;;;;;18.64;60.84;98868.16;225251;1279;138219;-77
2023/05/22 07:35:42;;;;;;;4.90;2.80;;;;;;;18.96;59.85;98866.92;225131;1283;137852;-76
2023/05/22 07:41:06;;;;;;;4.00;2.40;;;;;;;19.27;58.51;98864.79;225079;1280;137861;-77
2023/05/22 07:46:16;;;;;;;7.00;2.70;;;;;;;19.60;57.62;98860.11;225127;1277;137728;-77
2023/05/22 07:51:30;;;;;;;6.20;2.90;;;;;;;19.92;56.82;98856.80;225037;1277;137858;-76
2023/05/22 07:56:40;;;;;;;5.80;2.30;;;;;;;20.23;56.19;98855.23;225027;1277;22608;-77
2023/05/22 08:01:47;;;;;;;4.90;2.90;;;;;;;20.45;54.89;98857.16;225019;1279;137603;-77
2023/05/22 08:06:52;;;;;;;3.10;2.10;;;;;;;20.66;53.63;98855.80;225038;1282;137709;-75
2023/05/22 08:11:54;;;;;;;2.80;2.30;;;;;;;20.84;52.72;98857.45;224889;1277;138007;-76
2023/05/22 08:17:00;;;;;;;4.60;2.30;;;;;;;21.01;52.03;98851.66;224890;1280;137898;-78
2023/05/22 08:22:03;;;;;;;5.30;2.20;;;;;;;21.14;50.83;98850.02;224921;1283;137732;-76
2023/05/22 08:27:06;;;;;;;5.20;2.50;;;;;;;21.24;50.93;98844.69;224876;1277;137809;-75
2023/05/22 08:32:09;;;;;;;3.70;2.60;;;;;;;21.33;50.23;98842.05;225235;1280;22916;-76
2023/05/22 08:37:13;;;;;;;3.10;2.10;;;;;;;21.45;49.44;98839.39;224859;1276;137465;-75
2023/05/22 08:42:15;;;;;;;8.00;2.70;;;;;;;21.58;48.76;98828.84;224881;1281;137961;-76
2023/05/22 08:47:19;;;;;;;2.80;2.20;;;;;;;21.62;47.74;98830.86;225050;1283;137980;-75
2023/05/22 08:52:25;;;;;;;5.60;3.00;;;;;;;21.69;47.22;98835.52;225127;1282;137757;-77
2023/05/22 08:57:31;;;;;;;6.10;2.90;;;;;;;21.78;47.42;98833.89;225114;1276;137891;-76
2023/05/22 09:02:36;;;;;;;5.30;2.50;;;;;;;21.86;47.49;98832.42;225043;1280;22566;-77
2023/05/22 09:07:41;;;;;;;17.70;4.30;;;;;;;22.01;47.40;98829.94;224873;1284;137615;-77
2023/05/22 09:13:10;;;;;;;6.30;3.50;;;;;;;22.11;47.45;98831.61;225136;1276;137760;-77
2023/05/22 09:18:15;;;;;;;3.30;2.60;;;;;;;22.08;47.98;98829.19;225216;1267;138087;-77
2023/05/22 09:23:20;;;;;;;7.80;2.90;;;;;;;22.05;47.28;98826.64;225215;1275;137767;-76
2023/05/22 09:28:23;;;;;;;21.70;4.50;;;;;;;22.10;47.65;98828.65;225298;1280;137942;-76
2023/05/22 09:33:25;;;;;;;4.70;2.80;;;;;;;22.29;47.40;98827.98;225245;1280;137978;-77
2023/05/22 09:38:29;;;;;;;6.40;2.60;;;;;;;22.45;46.41;98825.30;225373;1278;22543;-76
2023/05/22 09:43:32;;;;;;;16.50;5.40;;;;;;;22.55;46.03;98821.03;225079;1279;137760;-75
2023/05/22 09:48:36;;;;;;;5.50;3.10;;;;;;;22.74;45.31;98821.48;225191;1275;137787;-74
2023/05/22 09:53:42;;;;;;;9.00;3.60;;;;;;;22.91;44.90;98815.70;225209;1280;138288;-75
2023/05/22 09:58:46;;;;;;;8.20;3.30;;;;;;;23.07;44.62;98810.82;225238;1277;137878;-75
2023/05/22 10:03:53;;;;;;;22.40;4.70;;;;;;;23.20;44.07;98805.02;225416;1275;137885;-76
2023/05/22 10:09:14;;;;;;;5.20;3.00;;;;;;;23.44;44.39;98801.29;225333;1282;138023;-76
2023/05/22 10:14:22;;;;;;;3.90;3.10;;;;;;;23.78;43.58;98797.16;225451;1278;23708;-75
2023/05/22 10:19:28;;;;;;;8.30;3.30;;;;;;;24.02;43.10;98795.26;225119;1276;137714;-77
2023/05/22 10:24:33;;;;;;;4.70;3.10;;;;;;;24.14;42.55;98792.30;225183;1271;137895;-76
2023/05/22 10:29:43;;;;;;;5.20;3.10;;;;;;;24.33;42.68;98792.68;225361;1274;137882;-76
2023/05/22 10:34:55;;;;;;;9.80;3.30;;;;;;;24.61;42.13;98789.56;225311;1278;137773;-76
2023/05/22 10:40:03;;;;;;;20.30;4.50;;;;;;;24.89;42.08;98786.53;225272;1276;146756;-76
2023/05/22 10:45:07;;;;;;;17.30;4.80;;;;;;;25.18;42.03;98786.17;225415;1281;138045;-77
2023/05/22 10:50:11;;;;;;;28.40;6.60;;;;;;;25.37;41.47;98783.68;225378;1261;22613;-77
2023/05/22 10:55:21;;;;;;;4.00;3.40;;;;;;;25.47;41.45;98780.52;225116;1267;137583;-77
2023/05/22 11:00:23;;;;;;;5.50;3.20;;;;;;;25.59;41.39;98777.64;225153;1277;138834;-76
2023/05/22 11:05:28;;;;;;;5.20;3.40;;;;;;;25.64;41.30;98772.86;225463;1275;137783;-76
2023/05/22 11:10:51;;;;;;;7.10;3.60;;;;;;;25.65;41.00;98769.48;225160;1263;137886;-78
2023/05/22 11:15:56;;;;;;;5.30;2.90;;;;;;;25.64;40.75;98767.45;225182;1280;137871;-78
2023/05/22 11:20:59;;;;;;;3.30;3.00;;;;;;;25.79;41.05;98762.63;225291;1281;22534;-79
2023/05/22 11:26:22;;;;;;;4.20;3.50;;;;;;;26.05;41.08;98754.53;225315;1279;22631;-78
2023/05/22 11:31:29;;;;;;;8.40;4.00;;;;;;;26.04;40.97;98753.52;225241;1280;137622;-79
2023/05/22 11:36:31;;;;;;;6.30;3.40;;;;;;;25.98;41.27;98752.88;225018;1261;137909;-78
2023/05/22 11:41:36;;;;;;;5.40;3.30;;;;;;;25.94;41.97;98752.77;224993;1278;137768;-78
2023/05/22 11:46:39;;;;;;;5.60;3.40;;;;;;;25.79;42.13;98757.42;225212;1276;137744;-78
2023/05/22 11:51:41;;;;;;;5.20;3.50;;;;;;;25.61;42.31;98757.77;224923;1282;137755;-77
2023/05/22 11:56:45;;;;;;;5.20;3.60;;;;;;;25.51;42.61;98758.36;225364;1281;22693;-78
2023/05/22 12:01:49;;;;;;;5.50;4.70;;;;;;;25.51;42.90;98758.02;225157;1283;137541;-78
2023/05/22 12:06:54;;;;;;;3.90;3.20;;;;;;;25.45;42.80;98751.75;225062;1283;137768;-78
2023/05/22 12:12:00;;;;;;;5.60;3.60;;;;;;;25.24;42.96;98757.02;225285;1276;137724;-72
2023/05/22 12:17:04;;;;;;;3.70;3.20;;;;;;;25.00;43.13;98756.73;225249;1281;137745;-73
2023/05/22 12:22:13;;;;;;;6.80;3.80;;;;;;;24.82;43.28;98753.98;225518;1281;138028;-76
2023/05/22 12:27:15;;;;;;;5.80;4.10;;;;;;;24.61;43.30;98749.90;225482;1281;137753;-75
2023/05/22 12:32:20;;;;;;;5.90;3.70;;;;;;;24.49;43.57;98742.67;225577;1281;22594;-75
2023/05/22 12:37:24;;;;;;;4.60;3.60;;;;;;;24.45;44.20;98738.77;225112;1275;137617;-75
2023/05/22 12:42:37;;;;;;;5.00;3.10;;;;;;;24.51;44.37;98733.04;225280;1281;138065;-75
2023/05/22 12:47:42;;;;;;;6.40;3.70;;;;;;;24.51;44.14;98727.10;225273;1275;138457;-76
2023/05/22 12:52:44;;;;;;;7.00;3.70;;;;;;;24.50;44.31;98726.34;225164;1279;137977;-75
2023/05/22 12:57:47;;;;;;;4.40;3.40;;;;;;;24.44;43.58;98726.35;224996;1273;137759;-75
2023/05/22 13:02:49;;;;;;;6.10;3.40;;;;;;;24.28;43.47;98723.14;225244;1276;22547;-75
2023/05/22 13:07:51;;;;;;;7.40;4.50;;;;;;;24.27;43.96;98724.71;225120;1278;138432;-75
2023/05/22 13:12:56;;;;;;;3.60;3.30;;;;;;;24.36;44.58;98719.64;225087;1275;138256;-75
2023/05/22 13:17:58;;;;;;;8.80;3.50;;;;;;;24.40;44.28;98717.07;225010;1280;137867;-75
2023/05/22 13:23:00;;;;;;;6.00;3.80;;;;;;;24.42;44.24;98717.45;224976;1283;138020;-75
2023/05/22 13:28:03;;;;;;;3.50;3.10;;;;;;;24.45;44.42;98719.44;225035;1277;137743;-75
2023/05/22 13:33:07;;;;;;;3.60;3.30;;;;;;;24.54;44.51;98712.44;225037;1269;22674;-75
2023/05/22 13:38:09;;;;;;;5.00;4.00;;;;;;;24.64;43.97;98714.16;224932;1271;137235;-75
2023/05/22 13:43:13;;;;;;;4.00;3.40;;;;;;;24.64;44.16;98709.41;224964;1261;137645;-74
2023/05/22 13:48:15;;;;;;;4.80;3.60;;;;;;;24.76;43.92;98705.27;225008;1268;138704;-77
2023/05/22 13:53:21;;;;;;;3.50;3.30;;;;;;;24.76;42.74;98703.37;224835;1281;137894;-77
2023/05/22 13:58:23;;;;;;;3.40;3.10;;;;;;;24.65;42.98;98700.64;224876;1260;137861;-77
2023/05/22 14:03:26;;;;;;;4.10;3.70;;;;;;;24.61;42.68;98694.30;224945;1276;22544;-76
2023/05/22 14:08:28;;;;;;;4.50;3.10;;;;;;;24.62;43.05;98687.90;224887;1276;22556;-76
2023/05/22 14:13:30;;;;;;;3.70;3.40;;;;;;;24.48;42.59;98686.22;224844;1278;25195;-76
2023/05/22 14:18:33;;;;;;;4.80;3.50;;;;;;;24.17;42.52;98682.30;225072;1283;24183;-76
2023/05/22 14:23:34;;;;;;;3.70;3.40;;;;;;;23.88;43.18;98681.04;225354;1283;22546;-77
2023/05/22 14:28:40;;;;;;;4.70;3.20;;;;;;;23.76;43.39;98676.48;225380;1283;22578;-76
2023/05/22 14:33:42;;;;;;;3.90;3.10;;;;;;;23.75;43.38;98669.52;225381;1283;22578;-77
2023/05/22 14:38:45;;;;;;;4.00;3.20;;;;;;;23.77;43.01;98664.39;225423;1279;22566;-77
2023/05/22 14:43:48;;;;;;;5.80;3.50;;;;;;;23.80;43.22;98659.59;225450;1283;22620;-77
2023/05/22 14:48:50;;;;;;;3.80;3.40;;;;;;;23.84;43.23;98656.01;225308;1280;22676;-77
2023/05/22 14:53:52;;;;;;;5.40;3.60;;;;;;;23.90;43.39;98653.81;225387;1278;22569;-76
2023/05/22 14:58:55;;;;;;;6.40;3.30;;;;;;;23.98;43.07;98652.75;225464;1283;22558;-76
2023/05/22 15:03:56;;;;;;;3.90;3.40;;;;;;;24.00;42.81;98640.27;225294;1283;22713;-75
2023/05/22 15:08:58;;;;;;;5.10;3.60;;;;;;;24.13;42.52;98638.63;225419;1279;22541;-76
2023/05/22 15:14:00;;;;;;;3.90;3.40;;;;;;;24.24;43.07;98641.00;225469;1283;23057;-77
2023/05/22 15:19:03;;;;;;;4.70;3.40;;;;;;;24.32;43.24;98634.39;225407;1278;22574;-76
2023/05/22 15:24:05;;;;;;;4.60;4.00;;;;;;;24.30;43.01;98633.74;225403;1278;24961;-77
2023/05/22 15:29:07;;;;;;;4.20;3.80;;;;;;;24.20;42.88;98631.55;225367;1281;22526;-75
2023/05/22 15:34:09;;;;;;;6.40;4.10;;;;;;;24.21;43.64;98629.22;225347;1281;24049;-76
2023/05/22 15:39:12;;;;;;;4.50;4.10;;;;;;;24.20;44.45;98621.77;225423;1283;22617;-77
2023/05/22 15:44:14;;;;;;;5.70;3.50;;;;;;;24.02;43.85;98621.03;225410;1280;22540;-77
2023/05/22 15:49:16;;;;;;;4.30;3.70;;;;;;;23.75;43.78;98617.30;225337;1280;22750;-77
2023/05/22 15:54:19;;;;;;;6.20;3.70;;;;;;;23.51;44.62;98612.96;225301;1283;22548;-77
2023/05/22 15:59:21;;;;;;;4.70;3.50;;;;;;;23.27;45.49;98610.83;225319;1273;22548;-77
2023/05/22 16:04:23;;;;;;;3.90;3.30;;;;;;;23.21;46.31;98609.43;225329;1267;22550;-76
2023/05/22 16:09:26;;;;;;;4.50;3.50;;;;;;;23.20;46.44;98604.48;225354;1283;22532;-77
2023/05/22 16:14:28;;;;;;;3.50;3.10;;;;;;;23.19;45.92;98605.29;225412;1281;22553;-76
2023/05/22 16:19:32;;;;;;;3.50;3.20;;;;;;;23.18;46.09;98600.49;225441;1280;22612;-76
2023/05/22 16:24:34;;;;;;;5.70;3.70;;;;;;;23.19;46.15;98597.85;225340;1281;22546;-76
2023/05/22 16:29:37;;;;;;;4.10;3.60;;;;;;;23.21;45.78;98596.07;225341;1283;22542;-77
2023/05/22 16:34:39;;;;;;;3.80;3.50;;;;;;;23.10;45.25;98594.32;225419;1278;22554;-77
2023/05/22 16:39:45;;;;;;;3.50;3.20;;;;;;;22.93;45.15;98594.10;225420;1279;22550;-76
2023/05/22 16:44:47;;;;;;;5.10;3.30;;;;;;;22.74;45.66;98598.69;225418;1279;24279;-76
2023/05/22 16:49:53;;;;;;;5.40;3.00;;;;;;;22.53;46.19;98595.40;225363;1283;22594;-76
2023/05/22 16:54:55;;;;;;;3.50;3.20;;;;;;;22.32;46.35;98600.52;225444;1280;24298;-76
2023/05/22 17:00:01;;;;;;;3.60;3.30;;;;;;;22.15;46.75;98604.76;225403;1277;22542;-76
2023/05/22 17:05:07;;;;;;;4.20;3.60;;;;;;;22.00;47.23;98612.35;225347;1281;24214;-77
2023/05/22 17:10:09;;;;;;;5.20;3.40;;;;;;;21.89;47.28;98616.89;225253;1283;22527;-76
2023/05/22 17:15:15;;;;;;;4.20;3.20;;;;;;;21.84;47.76;98618.13;225369;1283;22539;-77
2023/05/22 17:20:17;;;;;;;4.20;3.10;;;;;;;22.35;48.16;98619.85;225294;1283;22547;-76
2023/05/22 17:25:20;;;;;;;6.00;3.70;;;;;;;23.01;47.85;98625.07;225367;1281;22549;-76
2023/05/22 17:30:22;;;;;;;8.20;3.60;;;;;;;23.48;47.34;98627.77;225358;1283;22563;-76
2023/05/22 17:35:25;;;;;;;5.40;3.70;;;;;;;23.39;46.58;98627.19;225312;1283;22555;-76
2023/05/22 17:40:27;;;;;;;4.30;3.50;;;;;;;22.92;46.72;98619.74;225243;1282;22707;-76
2023/05/22 17:45:50;;;;;;;6.30;3.30;;;;;;;22.34;47.20;98618.98;225347;1281;22558;-76
2023/05/22 17:50:55;;;;;;;3.70;3.30;;;;;;;21.80;47.93;98620.10;225400;1268;22553;-76
2023/05/22 17:56:00;;;;;;;5.10;3.60;;;;;;;21.29;48.42;98618.37;225461;1283;25403;-75
2023/05/22 18:01:02;;;;;;;4.20;3.30;;;;;;;20.78;48.95;98614.34;225381;1278;22554;-76
2023/05/22 18:06:04;;;;;;;4.30;3.50;;;;;;;20.40;49.77;98620.09;225356;1281;22547;-76
2023/05/22 18:11:06;;;;;;;4.40;4.00;;;;;;;20.00;50.43;98615.30;225457;1277;23742;-76
2023/05/22 18:16:11;;;;;;;6.50;4.10;;;;;;;19.64;50.99;98619.15;225410;1280;22530;-75
2023/05/22 18:21:13;;;;;;;3.90;3.40;;;;;;;19.30;51.40;98615.52;225351;1281;23007;-77
2023/05/22 18:26:16;;;;;;;8.30;4.50;;;;;;;19.01;52.16;98618.82;225386;1283;22546;-75
2023/05/22 18:31:18;;;;;;;7.20;4.20;;;;;;;18.73;52.54;98619.65;225368;1281;22826;-75
2023/05/22 18:36:23;;;;;;;7.20;3.90;;;;;;;18.49;52.72;98614.04;225402;1283;22588;-76
2023/05/22 18:41:28;;;;;;;5.40;3.90;;;;;;;18.26;52.83;98616.98;225509;1281;24237;-75
2023/05/22 18:46:31;;;;;;;6.00;4.30;;;;;;;18.04;53.17;98619.42;225384;1283;23041;-75
2023/05/22 18:51:38;;;;;;;7.00;4.80;;;;;;;17.82;53.65;98619.48;225365;1283;22658;-75
2023/05/22 18:56:43;;;;;;;7.10;4.20;;;;;;;17.60;54.06;98624.33;225373;1281;22546;-75
2023/05/22 19:01:45;;;;;;;5.20;4.10;;;;;;;17.40;54.65;98622.84;225346;1281;22539;-75
2023/05/22 19:06:47;;;;;;;5.70;4.20;;;;;;;17.21;54.91;98623.40;225343;1281;22531;-75
2023/05/22 19:12:02;;;;;;;5.70;4.20;;;;;;;17.05;55.07;98624.86;225367;1281;22592;-74
2023/05/22 19:17:08;;;;;;;8.00;5.30;;;;;;;16.88;55.64;98629.13;225434;1283;22560;-75
2023/05/22 19:22:11;;;;;;;10.50;5.00;;;;;;;16.74;56.15;98628.85;225478;1275;22583;-77
2023/05/22 19:27:13;;;;;;;7.90;5.10;;;;;;;16.59;56.52;98625.91;225472;1282;25033;-75
2023/05/22 19:32:16;;;;;;;8.10;4.80;;;;;;;16.46;56.73;98626.45;225364;1283;22551;-76
2023/05/22 19:37:20;;;;;;;10.40;4.90;;;;;;;16.34;57.03;98632.71;225345;1283;24253;-75
2023/05/22 19:42:22;;;;;;;8.40;4.30;;;;;;;16.22;57.35;98630.22;225361;1281;22546;-76
2023/05/22 19:47:24;;;;;;;6.90;4.60;;;;;;;16.11;57.53;98624.20;225488;1281;22647;-75
2023/05/22 19:52:26;;;;;;;6.50;4.80;;;;;;;16.02;58.10;98631.41;225329;1278;22556;-75
2023/05/22 19:57:28;;;;;;;6.30;4.70;;;;;;;15.93;58.20;98628.34;225335;1281;22587;-75
2023/05/22 20:02:30;;;;;;;9.80;4.70;;;;;;;15.83;58.82;98628.40;225363;1283;23044;-76
2023/05/22 20:07:32;;;;;;;8.10;5.10;;;;;;;15.75;58.72;98628.54;225373;1281;22545;-76
2023/05/22 20:12:36;;;;;;;7.10;5.90;;;;;;;15.65;59.20;98632.64;225462;1278;23377;-76
2023/05/22 20:17:40;;;;;;;7.10;6.00;;;;;;;15.54;59.45;98624.41;225589;1280;22544;-75
2023/05/22 20:22:43;;;;;;;9.40;6.90;;;;;;;15.46;59.89;98622.44;225391;1281;23473;-75
2023/05/22 20:27:45;;;;;;;9.80;7.10;;;;;;;15.37;60.12;98619.35;225417;1278;22557;-75
2023/05/22 20:32:50;;;;;;;11.00;7.10;;;;;;;15.30;60.29;98616.64;225347;1281;23724;-76
2023/05/22 20:37:52;;;;;;;9.00;6.30;;;;;;;15.25;60.49;98613.76;225375;1281;22655;-75
2023/05/22 20:42:55;;;;;;;6.50;5.80;;;;;;;15.21;60.81;98609.98;225370;1281;22538;-74
2023/05/22 20:47:58;;;;;;;6.80;5.70;;;;;;;15.14;60.66;98613.73;225535;1283;22586;-74
2023/05/22 20:53:00;;;;;;;6.60;5.40;;;;;;;15.07;60.81;98613.26;225526;1281;22551;-75
2023/05/22 20:58:03;;;;;;;8.30;5.90;;;;;;;15.00;61.15;98605.91;225411;1281;22690;-75
2023/05/22 21:03:07;;;;;;;8.90;6.20;;;;;;;14.94;61.55;98602.38;225467;1281;22546;-75
2023/05/22 21:08:10;;;;;;;7.90;6.00;;;;;;;14.89;61.69;98601.48;225508;1281;22550;-75
2023/05/22 21:13:24;;;;;;;8.70;5.50;;;;;;;14.84;61.91;98599.02;225529;1283;22573;-75
2023/05/22 21:18:32;;;;;;;8.90;6.10;;;;;;;14.77;62.14;98596.23;225479;1283;22565;-75
2023/05/22 21:23:37;;;;;;;9.50;6.60;;;;;;;14.72;62.24;98593.45;225480;1283;24222;-75
2023/05/22 21:28:44;;;;;;;11.00;7.60;;;;;;;14.66;62.33;98595.58;225396;1281;22534;-75
2023/05/22 21:33:52;;;;;;;9.60;7.60;;;;;;;14.63;62.64;98596.58;225411;1281;22582;-75
2023/05/22 21:38:59;;;;;;;11.90;7.10;;;;;;;14.59;62.86;98588.83;225382;1281;22564;-76
2023/05/22 21:44:07;;;;;;;8.50;7.60;;;;;;;14.53;62.88;98591.55;225482;1279;22550;-75
2023/05/22 21:49:15;;;;;;;14.00;7.40;;;;;;;14.51;63.27;98591.95;225458;1275;22566;-75
2023/05/22 21:54:18;;;;;;;11.80;6.70;;;;;;;14.48;63.55;98590.86;225366;1281;22549;-75
2023/05/22 21:59:39;;;;;;;11.00;6.90;;;;;;;14.49;63.43;98591.98;225361;1281;22533;-75
2023/05/22 22:04:42;;;;;;;9.00;6.50;;;;;;;14.48;63.66;98590.90;225431;1283;22553;-75
2023/05/22 22:09:45;;;;;;;10.50;7.10;;;;;;;14.52;63.77;98588.95;225316;1281;22540;-75
2023/05/22 22:14:52;;;;;;;10.30;6.90;;;;;;;14.53;63.59;98584.48;225394;1281;24395;-75
2023/05/22 22:19:57;;;;;;;10.60;7.20;;;;;;;14.51;63.78;98583.44;225361;1283;22553;-75
2023/05/22 22:25:00;;;;;;;12.40;8.20;;;;;;;14.46;63.65;98577.25;225355;1283;22569;-75
2023/05/22 22:30:06;;;;;;;11.10;8.80;;;;;;;14.44;63.79;98572.96;225478;1281;22542;-75
2023/05/22 22:35:09;;;;;;;13.70;9.80;;;;;;;14.44;64.20;98573.66;225475;1279;22685;-75
2023/05/22 22:40:36;;;;;;;13.50;9.70;;;;;;;14.39;64.39;98570.41;222961;1281;3346810;-75
2023/05/22 22:45:46;;;;;;;14.40;9.60;;;;;;;14.28;64.11;98566.12;225334;1265;22537;-75
2023/05/22 22:50:48;;;;;;;14.60;9.60;;;;;;;14.15;64.45;98562.59;225481;1281;22559;-75
2023/05/22 22:56:01;;;;;;;14.20;10.10;;;;;;;14.00;64.62;98561.48;225349;1283;22546;-75
2023/05/22 23:01:09;;;;;;;16.60;9.80;;;;;;;13.86;65.05;98561.69;225498;1283;22543;-75
2023/05/22 23:06:16;;;;;;;13.80;9.40;;;;;;;13.73;65.37;98559.56;225394;1281;22768;-75
2023/05/22 23:11:26;;;;;;;15.50;9.70;;;;;;;13.61;65.50;98554.61;225394;1281;22589;-76
2023/05/22 23:16:46;;;;;;;11.70;9.00;;;;;;;13.48;65.75;98553.09;225373;1281;22534;-75
2023/05/22 23:21:51;;;;;;;15.30;8.70;;;;;;;13.32;66.08;98554.50;225444;1282;22646;-76
2023/05/22 23:26:59;;;;;;;15.00;9.00;;;;;;;13.17;66.48;98547.83;225345;1283;22547;-75
2023/05/22 23:32:10;;;;;;;15.10;9.00;;;;;;;13.01;66.66;98542.64;225409;1283;22650;-75
2023/05/22 23:37:23;;;;;;;11.60;8.60;;;;;;;12.86;66.93;98535.34;225443;1281;24291;-75
2023/05/22 23:42:27;;;;;;;11.60;8.90;;;;;;;12.72;67.35;98531.51;225358;1283;22542;-75
2023/05/22 23:47:43;;;;;;;14.50;9.00;;;;;;;12.57;67.71;98530.47;225479;1283;22575;-75
2023/05/22 23:52:56;;;;;;;9.10;8.10;;;;;;;12.45;67.98;98527.88;225487;1279;24200;-75